PWSweather.com
Personal Weather Stations
Station Observations
SMETHPA
Wilcat Hollow, Upper Marvin Creek, Smethport, PA 16749

Wilcat Hollow, Upper Marvin CreekSmethport, PA 16749

Lat: 41.7178, Lon: -78.5583

Elevation: 1644

Station Type: Davis Vantage Pro 2 Plus

http://www.mckeanweather.com

High Low Average
Temperature 80.8°F27.1°C 42.0°F5.6°C 62.6°F17.0°C
Dew Point 64.9°F18.3°C 40.7°F4.8°C 52.7°F11.5°C
Winds 3.0 mph 4.8 kmh Calm Calm 1.0 mph E1.6 kmh E
Wind Gusts 8.0 mph12.9 kmh -- 2.0 mph3.2 kmh
Humidity 100% 42% 74%
Pressure 30.45 in1031.2 mb 30.29 in1025.7 mb -
Precipitation 0.00 in0.0 mm - -
Hour Temp Dew Point Humidity Winds Wind Gusts Pressure Precip Precip Rate Daily Precip Total
12:00 AM 50.4°F10.2°C 48.5°F9.2°C 93% Calm Calm -- 30.38 in1028.8 mb 0.00 in0.0 mm 0.00 in0.0 mm 0.00 in0.0 mm
12:10 AM 50.1°F10.1°C 48.2°F9.0°C 93% Calm Calm -- 30.38 in1028.8 mb 0.00 in0.0 mm 0.00 in0.0 mm 0.00 in0.0 mm
12:20 AM 49.7°F9.8°C 47.8°F8.8°C 93% Calm Calm -- 30.38 in1028.8 mb 0.00 in0.0 mm 0.00 in0.0 mm 0.00 in0.0 mm
12:30 AM 49.4°F9.7°C 47.5°F8.6°C 93% Calm Calm -- 30.38 in1028.8 mb 0.00 in0.0 mm 0.00 in0.0 mm 0.00 in0.0 mm
12:40 AM 49.1°F9.5°C 47.2°F8.4°C 93% Calm Calm 1.0 mph1.6 kmh 30.38 in1028.8 mb 0.00 in0.0 mm 0.00 in0.0 mm 0.00 in0.0 mm
12:50 AM 48.8°F9.3°C 46.9°F8.3°C 93% Calm Calm -- 30.38 in1028.8 mb 0.00 in0.0 mm 0.00 in0.0 mm 0.00 in0.0 mm
01:00 AM 48.4°F9.1°C 46.5°F8.1°C 93% Calm Calm -- 30.38 in1028.8 mb 0.00 in0.0 mm 0.00 in0.0 mm 0.00 in0.0 mm
01:10 AM 48.1°F8.9°C 46.2°F7.9°C 93% Calm Calm -- 30.39 in1029.1 mb 0.00 in0.0 mm 0.00 in0.0 mm 0.00 in0.0 mm
01:20 AM 47.8°F8.8°C 45.9°F7.7°C 93% Calm Calm -- 30.39 in1029.1 mb 0.00 in0.0 mm 0.00 in0.0 mm 0.00 in0.0 mm
01:30 AM 47.4°F8.6°C 45.5°F7.5°C 93% Calm Calm -- 30.38 in1028.8 mb 0.00 in0.0 mm 0.00 in0.0 mm 0.00 in0.0 mm
01:40 AM 47.1°F8.4°C 45.2°F7.3°C 93% Calm Calm -- 30.38 in1028.8 mb 0.00 in0.0 mm 0.00 in0.0 mm 0.00 in0.0 mm
01:50 AM 46.9°F8.3°C 45.0°F7.2°C 93% Calm Calm -- 30.39 in1029.1 mb 0.00 in0.0 mm 0.00 in0.0 mm 0.00 in0.0 mm
02:00 AM 46.6°F8.1°C 44.7°F7.1°C 93% Calm Calm -- 30.39 in1029.1 mb 0.00 in0.0 mm 0.00 in0.0 mm 0.00 in0.0 mm
02:10 AM 46.2°F7.9°C 44.3°F6.8°C 93% Calm Calm -- 30.39 in1029.1 mb 0.00 in0.0 mm 0.00 in0.0 mm 0.00 in0.0 mm
02:20 AM 45.9°F7.7°C 44.0°F6.7°C 93% Calm Calm -- 30.38 in1028.8 mb 0.00 in0.0 mm 0.00 in0.0 mm 0.00 in0.0 mm
02:30 AM 45.7°F7.6°C 43.8°F6.6°C 93% Calm Calm -- 30.38 in1028.8 mb 0.00 in0.0 mm 0.00 in0.0 mm 0.00 in0.0 mm
02:40 AM 45.5°F7.5°C 43.6°F6.4°C 93% Calm Calm -- 30.38 in1028.8 mb 0.00 in0.0 mm 0.00 in0.0 mm 0.00 in0.0 mm
02:50 AM 45.3°F7.4°C 43.7°F6.5°C 94% Calm Calm -- 30.38 in1028.8 mb 0.00 in0.0 mm 0.00 in0.0 mm 0.00 in0.0 mm
03:00 AM 45.2°F7.3°C 43.6°F6.4°C 94% Calm Calm -- 30.38 in1028.8 mb 0.00 in0.0 mm 0.00 in0.0 mm 0.00 in0.0 mm
03:10 AM 45.0°F7.2°C 43.4°F6.3°C 94% Calm Calm -- 30.38 in1028.8 mb 0.00 in0.0 mm 0.00 in0.0 mm 0.00 in0.0 mm
03:20 AM 44.7°F7.1°C 43.1°F6.2°C 94% Calm Calm -- 30.38 in1028.8 mb 0.00 in0.0 mm 0.00 in0.0 mm 0.00 in0.0 mm
03:30 AM 44.5°F6.9°C 42.9°F6.1°C 94% Calm Calm -- 30.38 in1028.8 mb 0.00 in0.0 mm 0.00 in0.0 mm 0.00 in0.0 mm
03:40 AM 44.3°F6.8°C 42.7°F5.9°C 94% Calm Calm -- 30.39 in1029.1 mb 0.00 in0.0 mm 0.00 in0.0 mm 0.00 in0.0 mm
03:50 AM 44.1°F6.7°C 42.5°F5.8°C 94% Calm Calm -- 30.39 in1029.1 mb 0.00 in0.0 mm 0.00 in0.0 mm 0.00 in0.0 mm
04:00 AM 43.8°F6.6°C 42.2°F5.7°C 94% Calm Calm -- 30.39 in1029.1 mb 0.00 in0.0 mm 0.00 in0.0 mm 0.00 in0.0 mm
04:10 AM 43.6°F6.4°C 42.0°F5.6°C 94% Calm Calm -- 30.39 in1029.1 mb 0.00 in0.0 mm 0.00 in0.0 mm 0.00 in0.0 mm
04:20 AM 43.5°F6.4°C 41.9°F5.5°C 94% Calm Calm -- 30.39 in1029.1 mb 0.00 in0.0 mm 0.00 in0.0 mm 0.00 in0.0 mm
04:30 AM 43.4°F6.3°C 41.8°F5.4°C 94% Calm Calm -- 30.39 in1029.1 mb 0.00 in0.0 mm 0.00 in0.0 mm 0.00 in0.0 mm
04:40 AM 43.2°F6.2°C 41.9°F5.5°C 95% Calm Calm -- 30.39 in1029.1 mb 0.00 in0.0 mm 0.00 in0.0 mm 0.00 in0.0 mm
04:50 AM 43.1°F6.2°C 41.5°F5.3°C 94% Calm Calm -- 30.38 in1028.8 mb 0.00 in0.0 mm 0.00 in0.0 mm 0.00 in0.0 mm
05:00 AM 42.8°F6.0°C 41.2°F5.1°C 94% Calm Calm -- 30.39 in1029.1 mb 0.00 in0.0 mm 0.00 in0.0 mm 0.00 in0.0 mm
05:10 AM 42.7°F5.9°C 41.4°F5.2°C 95% Calm Calm -- 30.41 in1029.8 mb 0.00 in0.0 mm 0.00 in0.0 mm 0.00 in0.0 mm
05:20 AM 42.5°F5.8°C 41.2°F5.1°C 95% Calm Calm -- 30.40 in1029.5 mb 0.00 in0.0 mm 0.00 in0.0 mm 0.00 in0.0 mm
05:30 AM 42.3°F5.7°C 41.0°F5.0°C 95% Calm Calm -- 30.40 in1029.5 mb 0.00 in0.0 mm 0.00 in0.0 mm 0.00 in0.0 mm
05:40 AM 42.3°F5.7°C 41.0°F5.0°C 95% Calm Calm -- 30.41 in1029.8 mb 0.00 in0.0 mm 0.00 in0.0 mm 0.00 in0.0 mm
05:50 AM 42.3°F5.7°C 41.0°F5.0°C 95% Calm Calm -- 30.41 in1029.8 mb 0.00 in0.0 mm 0.00 in0.0 mm 0.00 in0.0 mm
06:00 AM 42.2°F5.7°C 40.9°F4.9°C 95% Calm Calm -- 30.41 in1029.8 mb 0.00 in0.0 mm 0.00 in0.0 mm 0.00 in0.0 mm
06:10 AM 42.2°F5.7°C 40.9°F4.9°C 95% Calm Calm -- 30.42 in1030.1 mb 0.00 in0.0 mm 0.00 in0.0 mm 0.00 in0.0 mm
06:20 AM 42.1°F5.6°C 40.8°F4.9°C 95% Calm Calm -- 30.42 in1030.1 mb 0.00 in0.0 mm 0.00 in0.0 mm 0.00 in0.0 mm
06:30 AM 42.0°F5.6°C 40.7°F4.8°C 95% Calm Calm -- 30.43 in1030.5 mb 0.00 in0.0 mm 0.00 in0.0 mm 0.00 in0.0 mm
06:40 AM 42.1°F5.6°C 41.0°F5.0°C 96% Calm Calm -- 30.43 in1030.5 mb 0.00 in0.0 mm 0.00 in0.0 mm 0.00 in0.0 mm
06:50 AM 42.7°F5.9°C 41.6°F5.3°C 96% Calm Calm -- 30.44 in1030.8 mb 0.00 in0.0 mm 0.00 in0.0 mm 0.00 in0.0 mm
07:00 AM 43.5°F6.4°C 42.7°F5.9°C 97% Calm Calm -- 30.44 in1030.8 mb 0.00 in0.0 mm 0.00 in0.0 mm 0.00 in0.0 mm
07:10 AM 45.1°F7.3°C 45.1°F7.3°C 100% Calm Calm -- 30.44 in1030.8 mb 0.00 in0.0 mm 0.00 in0.0 mm 0.00 in0.0 mm
07:20 AM 46.8°F8.2°C 46.8°F8.2°C 100% Calm Calm -- 30.45 in1031.2 mb 0.00 in0.0 mm 0.00 in0.0 mm 0.00 in0.0 mm
07:30 AM 48.2°F9.0°C 48.2°F9.0°C 100% Calm Calm -- 30.45 in1031.2 mb 0.00 in0.0 mm 0.00 in0.0 mm 0.00 in0.0 mm
07:40 AM 49.8°F9.9°C 49.8°F9.9°C 100% Calm Calm -- 30.44 in1030.8 mb 0.00 in0.0 mm 0.00 in0.0 mm 0.00 in0.0 mm
07:50 AM 51.1°F10.6°C 51.1°F10.6°C 100% Calm Calm -- 30.43 in1030.5 mb 0.00 in0.0 mm 0.00 in0.0 mm 0.00 in0.0 mm
08:00 AM 52.2°F11.2°C 52.2°F11.2°C 100% Calm Calm -- 30.43 in1030.5 mb 0.00 in0.0 mm 0.00 in0.0 mm 0.00 in0.0 mm
08:10 AM 53.5°F11.9°C 53.5°F11.9°C 100% Calm Calm 2.0 mph3.2 kmh 30.43 in1030.5 mb 0.00 in0.0 mm 0.00 in0.0 mm 0.00 in0.0 mm
08:20 AM 54.2°F12.3°C 53.1°F11.7°C 96% 1.0 mph N1.6 kmh N 3.0 mph4.8 kmh 30.43 in1030.5 mb 0.00 in0.0 mm 0.00 in0.0 mm 0.00 in0.0 mm
08:30 AM 55.4°F13.0°C 54.0°F12.2°C 95% 1.0 mph N1.6 kmh N 3.0 mph4.8 kmh 30.43 in1030.5 mb 0.00 in0.0 mm 0.00 in0.0 mm 0.00 in0.0 mm
08:40 AM 56.6°F13.7°C 54.6°F12.6°C 93% 1.0 mph N1.6 kmh N 3.0 mph4.8 kmh 30.44 in1030.8 mb 0.00 in0.0 mm 0.00 in0.0 mm 0.00 in0.0 mm
08:50 AM 57.7°F14.3°C 55.1°F12.8°C 91% Calm Calm 2.0 mph3.2 kmh 30.43 in1030.5 mb 0.00 in0.0 mm 0.00 in0.0 mm 0.00 in0.0 mm
09:00 AM 58.7°F14.8°C 55.5°F13.1°C 89% Calm Calm 2.0 mph3.2 kmh 30.44 in1030.8 mb 0.00 in0.0 mm 0.00 in0.0 mm 0.00 in0.0 mm
09:10 AM 60.9°F16.1°C 57.0°F13.9°C 87% 1.0 mph N1.6 kmh N 2.0 mph3.2 kmh 30.43 in1030.5 mb 0.00 in0.0 mm 0.00 in0.0 mm 0.00 in0.0 mm
09:20 AM 63.0°F17.2°C 57.4°F14.1°C 82% Calm Calm 2.0 mph3.2 kmh 30.43 in1030.5 mb 0.00 in0.0 mm 0.00 in0.0 mm 0.00 in0.0 mm
09:30 AM 64.8°F18.2°C 58.5°F14.7°C 80% 1.0 mph N1.6 kmh N 3.0 mph4.8 kmh 30.43 in1030.5 mb 0.00 in0.0 mm 0.00 in0.0 mm 0.00 in0.0 mm
09:40 AM 65.9°F18.8°C 58.1°F14.5°C 76% 2.0 mph N3.2 kmh N 3.0 mph4.8 kmh 30.43 in1030.5 mb 0.00 in0.0 mm 0.00 in0.0 mm 0.00 in0.0 mm
09:50 AM 67.3°F19.6°C 59.5°F15.3°C 76% 2.0 mph N3.2 kmh N 3.0 mph4.8 kmh 30.43 in1030.5 mb 0.00 in0.0 mm 0.00 in0.0 mm 0.00 in0.0 mm
10:00 AM 68.9°F20.5°C 59.1°F15.1°C 71% 2.0 mph N3.2 kmh N 3.0 mph4.8 kmh 30.43 in1030.5 mb 0.00 in0.0 mm 0.00 in0.0 mm 0.00 in0.0 mm
10:10 AM 70.1°F21.2°C 59.0°F15.0°C 68% 1.0 mph N1.6 kmh N 4.0 mph6.4 kmh 30.43 in1030.5 mb 0.00 in0.0 mm 0.00 in0.0 mm 0.00 in0.0 mm
10:20 AM 70.7°F21.5°C 57.5°F14.2°C 63% 1.0 mph N1.6 kmh N 4.0 mph6.4 kmh 30.42 in1030.1 mb 0.00 in0.0 mm 0.00 in0.0 mm 0.00 in0.0 mm
10:30 AM 71.6°F22.0°C 56.5°F13.6°C 59% 1.0 mph N1.6 kmh N 3.0 mph4.8 kmh 30.42 in1030.1 mb 0.00 in0.0 mm 0.00 in0.0 mm 0.00 in0.0 mm
10:40 AM 72.4°F22.4°C 54.8°F12.7°C 54% 2.0 mph NW3.2 kmh NW 6.0 mph9.7 kmh 30.41 in1029.8 mb 0.00 in0.0 mm 0.00 in0.0 mm 0.00 in0.0 mm
10:50 AM 72.6°F22.6°C 56.0°F13.3°C 56% 3.0 mph SSW4.8 kmh SSW 5.0 mph8.0 kmh 30.41 in1029.8 mb 0.00 in0.0 mm 0.00 in0.0 mm 0.00 in0.0 mm
11:00 AM 73.3°F22.9°C 56.2°F13.4°C 55% 2.0 mph WSW3.2 kmh WSW 7.0 mph11.3 kmh 30.41 in1029.8 mb 0.00 in0.0 mm 0.00 in0.0 mm 0.00 in0.0 mm
11:10 AM 73.3°F22.9°C 53.0°F11.7°C 49% 3.0 mph SW4.8 kmh SW 6.0 mph9.7 kmh 30.41 in1029.8 mb 0.00 in0.0 mm 0.00 in0.0 mm 0.00 in0.0 mm
11:20 AM 73.8°F23.2°C 54.0°F12.2°C 50% 2.0 mph SSW3.2 kmh SSW 5.0 mph8.0 kmh 30.41 in1029.8 mb 0.00 in0.0 mm 0.00 in0.0 mm 0.00 in0.0 mm
11:30 AM 74.4°F23.6°C 54.0°F12.2°C 49% 2.0 mph W3.2 kmh W 8.0 mph12.9 kmh 30.41 in1029.8 mb 0.00 in0.0 mm 0.00 in0.0 mm 0.00 in0.0 mm
11:40 AM 74.1°F23.4°C 54.3°F12.4°C 50% 2.0 mph NW3.2 kmh NW 4.0 mph6.4 kmh 30.40 in1029.5 mb 0.00 in0.0 mm 0.00 in0.0 mm 0.00 in0.0 mm
11:50 AM 74.9°F23.8°C 53.9°F12.2°C 48% 1.0 mph NW1.6 kmh NW 5.0 mph8.0 kmh 30.40 in1029.5 mb 0.00 in0.0 mm 0.00 in0.0 mm 0.00 in0.0 mm
12:00 PM 75.2°F24.0°C 55.8°F13.2°C 51% 2.0 mph WNW3.2 kmh WNW 6.0 mph9.7 kmh 30.39 in1029.1 mb 0.00 in0.0 mm 0.00 in0.0 mm 0.00 in0.0 mm
12:10 PM 75.1°F23.9°C 56.8°F13.8°C 53% 3.0 mph W4.8 kmh W 5.0 mph8.0 kmh 30.39 in1029.1 mb 0.00 in0.0 mm 0.00 in0.0 mm 0.00 in0.0 mm
12:20 PM 75.9°F24.4°C 54.8°F12.7°C 48% 1.0 mph W1.6 kmh W 6.0 mph9.7 kmh 30.39 in1029.1 mb 0.00 in0.0 mm 0.00 in0.0 mm 0.00 in0.0 mm
12:30 PM 75.7°F24.3°C 53.4°F11.9°C 46% 3.0 mph W4.8 kmh W 8.0 mph12.9 kmh 30.39 in1029.1 mb 0.00 in0.0 mm 0.00 in0.0 mm 0.00 in0.0 mm
12:40 PM 76.3°F24.6°C 56.3°F13.5°C 50% 2.0 mph WSW3.2 kmh WSW 5.0 mph8.0 kmh 30.38 in1028.8 mb 0.00 in0.0 mm 0.00 in0.0 mm 0.00 in0.0 mm
12:50 PM 77.1°F25.1°C 55.3°F12.9°C 47% 1.0 mph WNW1.6 kmh WNW 6.0 mph9.7 kmh 30.38 in1028.8 mb 0.00 in0.0 mm 0.00 in0.0 mm 0.00 in0.0 mm
01:00 PM 77.0°F25.0°C 54.6°F12.6°C 46% 2.0 mph ENE3.2 kmh ENE 5.0 mph8.0 kmh 30.37 in1028.4 mb 0.00 in0.0 mm 0.00 in0.0 mm 0.00 in0.0 mm
01:10 PM 77.0°F25.0°C 56.9°F13.8°C 50% 2.0 mph WSW3.2 kmh WSW 6.0 mph9.7 kmh 30.37 in1028.4 mb 0.00 in0.0 mm 0.00 in0.0 mm 0.00 in0.0 mm
01:20 PM 77.3°F25.2°C 55.5°F13.1°C 47% 2.0 mph WSW3.2 kmh WSW 6.0 mph9.7 kmh 30.36 in1028.1 mb 0.00 in0.0 mm 0.00 in0.0 mm 0.00 in0.0 mm
01:30 PM 77.6°F25.3°C 56.9°F13.8°C 49% 2.0 mph NW3.2 kmh NW 5.0 mph8.0 kmh 30.36 in1028.1 mb 0.00 in0.0 mm 0.00 in0.0 mm 0.00 in0.0 mm
01:40 PM 77.8°F25.4°C 57.7°F14.3°C 50% 2.0 mph NE3.2 kmh NE 6.0 mph9.7 kmh 30.36 in1028.1 mb 0.00 in0.0 mm 0.00 in0.0 mm 0.00 in0.0 mm
01:50 PM 77.8°F25.4°C 56.0°F13.3°C 47% 2.0 mph WNW3.2 kmh WNW 7.0 mph11.3 kmh 30.35 in1027.8 mb 0.00 in0.0 mm 0.00 in0.0 mm 0.00 in0.0 mm
02:00 PM 78.2°F25.7°C 55.1°F12.8°C 45% 2.0 mph W3.2 kmh W 8.0 mph12.9 kmh 30.35 in1027.8 mb 0.00 in0.0 mm 0.00 in0.0 mm 0.00 in0.0 mm
02:10 PM 78.0°F25.6°C 53.0°F11.7°C 42% 2.0 mph SSW3.2 kmh SSW 5.0 mph8.0 kmh 30.35 in1027.8 mb 0.00 in0.0 mm 0.00 in0.0 mm 0.00 in0.0 mm
02:20 PM 78.7°F25.9°C 55.6°F13.1°C 45% 2.0 mph SW3.2 kmh SW 8.0 mph12.9 kmh 30.35 in1027.8 mb 0.00 in0.0 mm 0.00 in0.0 mm 0.00 in0.0 mm
02:30 PM 78.7°F25.9°C 56.2°F13.4°C 46% 3.0 mph E4.8 kmh E 8.0 mph12.9 kmh 30.35 in1027.8 mb 0.00 in0.0 mm 0.00 in0.0 mm 0.00 in0.0 mm
02:40 PM 79.2°F26.2°C 57.2°F14.0°C 47% 2.0 mph NNE3.2 kmh NNE 4.0 mph6.4 kmh 30.34 in1027.4 mb 0.00 in0.0 mm 0.00 in0.0 mm 0.00 in0.0 mm
02:50 PM 79.6°F26.4°C 57.6°F14.2°C 47% 1.0 mph W1.6 kmh W 7.0 mph11.3 kmh 30.34 in1027.4 mb 0.00 in0.0 mm 0.00 in0.0 mm 0.00 in0.0 mm
03:00 PM 79.9°F26.6°C 56.7°F13.7°C 45% 3.0 mph W4.8 kmh W 8.0 mph12.9 kmh 30.34 in1027.4 mb 0.00 in0.0 mm 0.00 in0.0 mm 0.00 in0.0 mm
03:10 PM 79.7°F26.5°C 58.3°F14.6°C 48% 2.0 mph WSW3.2 kmh WSW 6.0 mph9.7 kmh 30.33 in1027.1 mb 0.00 in0.0 mm 0.00 in0.0 mm 0.00 in0.0 mm
03:20 PM 80.1°F26.7°C 56.8°F13.8°C 45% 2.0 mph ENE3.2 kmh ENE 6.0 mph9.7 kmh 30.33 in1027.1 mb 0.00 in0.0 mm 0.00 in0.0 mm 0.00 in0.0 mm
03:30 PM 80.0°F26.7°C 56.7°F13.7°C 45% 3.0 mph NE4.8 kmh NE 4.0 mph6.4 kmh 30.33 in1027.1 mb 0.00 in0.0 mm 0.00 in0.0 mm 0.00 in0.0 mm
03:40 PM 79.8°F26.6°C 59.5°F15.3°C 50% 2.0 mph N3.2 kmh N 6.0 mph9.7 kmh 30.33 in1027.1 mb 0.00 in0.0 mm 0.00 in0.0 mm 0.00 in0.0 mm
03:50 PM 79.6°F26.4°C 58.2°F14.6°C 48% 2.0 mph SSE3.2 kmh SSE 8.0 mph12.9 kmh 30.33 in1027.1 mb 0.00 in0.0 mm 0.00 in0.0 mm 0.00 in0.0 mm
04:00 PM 80.6°F27.0°C 59.1°F15.1°C 48% 1.0 mph SSW1.6 kmh SSW 5.0 mph8.0 kmh 30.32 in1026.8 mb 0.00 in0.0 mm 0.00 in0.0 mm 0.00 in0.0 mm
04:10 PM 80.3°F26.8°C 56.4°F13.6°C 44% 2.0 mph SE3.2 kmh SE 7.0 mph11.3 kmh 30.32 in1026.8 mb 0.00 in0.0 mm 0.00 in0.0 mm 0.00 in0.0 mm
04:20 PM 80.0°F26.7°C 58.0°F14.4°C 47% 2.0 mph SE3.2 kmh SE 5.0 mph8.0 kmh 30.32 in1026.8 mb 0.00 in0.0 mm 0.00 in0.0 mm 0.00 in0.0 mm
04:30 PM 80.6°F27.0°C 61.3°F16.3°C 52% 1.0 mph SW1.6 kmh SW 5.0 mph8.0 kmh 30.32 in1026.8 mb 0.00 in0.0 mm 0.00 in0.0 mm 0.00 in0.0 mm
04:40 PM 80.8°F27.1°C 56.9°F13.8°C 44% 1.0 mph SE1.6 kmh SE 6.0 mph9.7 kmh 30.32 in1026.8 mb 0.00 in0.0 mm 0.00 in0.0 mm 0.00 in0.0 mm
04:50 PM 80.8°F27.1°C 58.7°F14.8°C 47% 2.0 mph SE3.2 kmh SE 6.0 mph9.7 kmh 30.32 in1026.8 mb 0.00 in0.0 mm 0.00 in0.0 mm 0.00 in0.0 mm
05:00 PM 80.5°F26.9°C 58.4°F14.7°C 47% 2.0 mph SW3.2 kmh SW 5.0 mph8.0 kmh 30.32 in1026.8 mb 0.00 in0.0 mm 0.00 in0.0 mm 0.00 in0.0 mm
05:10 PM 80.5°F26.9°C 58.4°F14.7°C 47% 2.0 mph WSW3.2 kmh WSW 6.0 mph9.7 kmh 30.31 in1026.4 mb 0.00 in0.0 mm 0.00 in0.0 mm 0.00 in0.0 mm
05:20 PM 80.3°F26.8°C 58.8°F14.9°C 48% 2.0 mph W3.2 kmh W 4.0 mph6.4 kmh 30.31 in1026.4 mb 0.00 in0.0 mm 0.00 in0.0 mm 0.00 in0.0 mm
05:30 PM 80.5°F26.9°C 59.6°F15.3°C 49% 1.0 mph WSW1.6 kmh WSW 4.0 mph6.4 kmh 30.31 in1026.4 mb 0.00 in0.0 mm 0.00 in0.0 mm 0.00 in0.0 mm
05:40 PM 80.4°F26.9°C 58.9°F14.9°C 48% 2.0 mph WSW3.2 kmh WSW 8.0 mph12.9 kmh 30.31 in1026.4 mb 0.00 in0.0 mm 0.00 in0.0 mm 0.00 in0.0 mm
05:50 PM 80.1°F26.7°C 57.5°F14.2°C 46% 2.0 mph WSW3.2 kmh WSW 4.0 mph6.4 kmh 30.31 in1026.4 mb 0.00 in0.0 mm 0.00 in0.0 mm 0.00 in0.0 mm
06:00 PM 80.0°F26.7°C 56.7°F13.7°C 45% 2.0 mph WSW3.2 kmh WSW 6.0 mph9.7 kmh 30.31 in1026.4 mb 0.00 in0.0 mm 0.00 in0.0 mm 0.00 in0.0 mm
06:10 PM 79.7°F26.5°C 55.9°F13.3°C 44% 2.0 mph WSW3.2 kmh WSW 6.0 mph9.7 kmh 30.30 in1026.1 mb 0.00 in0.0 mm 0.00 in0.0 mm 0.00 in0.0 mm
06:20 PM 79.5°F26.4°C 57.5°F14.2°C 47% 1.0 mph WSW1.6 kmh WSW 5.0 mph8.0 kmh 30.30 in1026.1 mb 0.00 in0.0 mm 0.00 in0.0 mm 0.00 in0.0 mm
06:30 PM 79.1°F26.2°C 61.0°F16.1°C 54% 1.0 mph WSW1.6 kmh WSW 4.0 mph6.4 kmh 30.30 in1026.1 mb 0.00 in0.0 mm 0.00 in0.0 mm 0.00 in0.0 mm
06:40 PM 79.0°F26.1°C 60.9°F16.1°C 54% 1.0 mph WSW1.6 kmh WSW 5.0 mph8.0 kmh 30.30 in1026.1 mb 0.00 in0.0 mm 0.00 in0.0 mm 0.00 in0.0 mm
06:50 PM 78.4°F25.8°C 61.4°F16.3°C 56% 1.0 mph WSW1.6 kmh WSW 2.0 mph3.2 kmh 30.29 in1025.7 mb 0.00 in0.0 mm 0.00 in0.0 mm 0.00 in0.0 mm
07:00 PM 78.2°F25.7°C 60.7°F15.9°C 55% Calm Calm 1.0 mph1.6 kmh 30.29 in1025.7 mb 0.00 in0.0 mm 0.00 in0.0 mm 0.00 in0.0 mm
07:10 PM 78.0°F25.6°C 59.5°F15.3°C 53% Calm Calm 3.0 mph4.8 kmh 30.29 in1025.7 mb 0.00 in0.0 mm 0.00 in0.0 mm 0.00 in0.0 mm
07:20 PM 77.4°F25.2°C 63.4°F17.4°C 62% 1.0 mph WSW1.6 kmh WSW 4.0 mph6.4 kmh 30.29 in1025.7 mb 0.00 in0.0 mm 0.00 in0.0 mm 0.00 in0.0 mm
07:30 PM 77.0°F25.0°C 63.0°F17.2°C 62% 1.0 mph WSW1.6 kmh WSW 1.0 mph1.6 kmh 30.29 in1025.7 mb 0.00 in0.0 mm 0.00 in0.0 mm 0.00 in0.0 mm
07:40 PM 77.2°F25.1°C 63.2°F17.3°C 62% Calm Calm 2.0 mph3.2 kmh 30.29 in1025.7 mb 0.00 in0.0 mm 0.00 in0.0 mm 0.00 in0.0 mm
07:50 PM 76.7°F24.8°C 64.9°F18.3°C 67% Calm Calm 3.0 mph4.8 kmh 30.29 in1025.7 mb 0.00 in0.0 mm 0.00 in0.0 mm 0.00 in0.0 mm
08:00 PM 75.3°F24.1°C 64.0°F17.8°C 68% Calm Calm -- 30.29 in1025.7 mb 0.00 in0.0 mm 0.00 in0.0 mm 0.00 in0.0 mm
08:10 PM 73.6°F23.1°C 63.2°F17.3°C 70% Calm Calm 1.0 mph1.6 kmh 30.29 in1025.7 mb 0.00 in0.0 mm 0.00 in0.0 mm 0.00 in0.0 mm
08:20 PM 72.1°F22.3°C 61.8°F16.6°C 70% Calm Calm -- 30.29 in1025.7 mb 0.00 in0.0 mm 0.00 in0.0 mm 0.00 in0.0 mm
08:30 PM 69.9°F21.1°C 60.5°F15.8°C 72% Calm Calm 1.0 mph1.6 kmh 30.29 in1025.7 mb 0.00 in0.0 mm 0.00 in0.0 mm 0.00 in0.0 mm
08:40 PM 68.0°F20.0°C 59.8°F15.4°C 75% Calm Calm -- 30.29 in1025.7 mb 0.00 in0.0 mm 0.00 in0.0 mm 0.00 in0.0 mm
08:50 PM 65.8°F18.8°C 59.1°F15.1°C 79% Calm Calm -- 30.30 in1026.1 mb 0.00 in0.0 mm 0.00 in0.0 mm 0.00 in0.0 mm
09:00 PM 64.2°F17.9°C 57.9°F14.4°C 80% Calm Calm -- 30.29 in1025.7 mb 0.00 in0.0 mm 0.00 in0.0 mm 0.00 in0.0 mm
09:10 PM 62.8°F17.1°C 57.6°F14.2°C 83% Calm Calm -- 30.30 in1026.1 mb 0.00 in0.0 mm 0.00 in0.0 mm 0.00 in0.0 mm
09:20 PM 61.7°F16.5°C 56.8°F13.8°C 84% Calm Calm -- 30.29 in1025.7 mb 0.00 in0.0 mm 0.00 in0.0 mm 0.00 in0.0 mm
09:30 PM 60.9°F16.1°C 56.4°F13.6°C 85% Calm Calm -- 30.30 in1026.1 mb 0.00 in0.0 mm 0.00 in0.0 mm 0.00 in0.0 mm
09:40 PM 60.0°F15.6°C 55.8°F13.2°C 86% Calm Calm -- 30.30 in1026.1 mb 0.00 in0.0 mm 0.00 in0.0 mm 0.00 in0.0 mm
09:50 PM 59.2°F15.1°C 55.3°F12.9°C 87% Calm Calm -- 30.30 in1026.1 mb 0.00 in0.0 mm 0.00 in0.0 mm 0.00 in0.0 mm
10:00 PM 58.6°F14.8°C 55.4°F13.0°C 89% Calm Calm -- 30.31 in1026.4 mb 0.00 in0.0 mm 0.00 in0.0 mm 0.00 in0.0 mm
10:10 PM 58.2°F14.6°C 55.3°F12.9°C 90% Calm Calm 1.0 mph1.6 kmh 30.31 in1026.4 mb 0.00 in0.0 mm 0.00 in0.0 mm 0.00 in0.0 mm
10:20 PM 57.8°F14.3°C 55.2°F12.9°C 91% Calm Calm 1.0 mph1.6 kmh 30.31 in1026.4 mb 0.00 in0.0 mm 0.00 in0.0 mm 0.00 in0.0 mm
10:30 PM 57.5°F14.2°C 54.9°F12.7°C 91% Calm Calm -- 30.31 in1026.4 mb 0.00 in0.0 mm 0.00 in0.0 mm 0.00 in0.0 mm
10:40 PM 56.8°F13.8°C 54.2°F12.3°C 91% Calm Calm -- 30.31 in1026.4 mb 0.00 in0.0 mm 0.00 in0.0 mm 0.00 in0.0 mm
10:50 PM 56.2°F13.4°C 53.6°F12.0°C 91% Calm Calm -- 30.31 in1026.4 mb 0.00 in0.0 mm 0.00 in0.0 mm 0.00 in0.0 mm
11:00 PM 55.7°F13.2°C 53.1°F11.7°C 91% Calm Calm -- 30.31 in1026.4 mb 0.00 in0.0 mm 0.00 in0.0 mm 0.00 in0.0 mm
11:10 PM 55.1°F12.8°C 52.5°F11.4°C 91% Calm Calm -- 30.31 in1026.4 mb 0.00 in0.0 mm 0.00 in0.0 mm 0.00 in0.0 mm
11:20 PM 54.5°F12.5°C 51.9°F11.1°C 91% Calm Calm -- 30.31 in1026.4 mb 0.00 in0.0 mm 0.00 in0.0 mm 0.00 in0.0 mm
11:30 PM 54.0°F12.2°C 51.4°F10.8°C 91% Calm Calm -- 30.31 in1026.4 mb 0.00 in0.0 mm 0.00 in0.0 mm 0.00 in0.0 mm
11:40 PM 53.5°F11.9°C 51.2°F10.7°C 92% Calm Calm -- 30.31 in1026.4 mb 0.00 in0.0 mm 0.00 in0.0 mm 0.00 in0.0 mm
11:50 PM 53.3°F11.8°C 51.0°F10.6°C 92% Calm Calm 1.0 mph1.6 kmh 30.31 in1026.4 mb 0.00 in0.0 mm 0.00 in0.0 mm 0.00 in0.0 mm